Time;durP1;ratioP1;P1;durP2;ratioP2;P2;SDS_P1;SDS_P2;PMS_P1;PMS_P2;Temp;Humidity;BMP_temperature;BMP_pressure;BME280_temperature;BME280_humidity;BME280_pressure;Samples;Min_cycle;Max_cycle;Signal;HPM_P1;HPM_P2
2021/06/22 00:00:39;;;;;;;6.50;2.90;;;20.70;99.90;;;;;;5080541;28;20040;-65
2021/06/22 00:03:06;;;;;;;7.65;3.72;;;20.70;99.90;;;;;;5077784;28;20048;-65
2021/06/22 00:05:35;;;;;;;4.72;3.00;;;20.70;99.90;;;;;;5077024;28;20048;-66
2021/06/22 00:08:04;;;;;;;5.55;3.42;;;20.70;99.90;;;;;;5077525;28;20055;-66
2021/06/22 00:10:32;;;;;;;8.50;3.70;;;20.70;99.90;;;;;;5074338;28;20044;-65
2021/06/22 00:13:00;;;;;;;6.78;3.13;;;20.60;99.90;;;;;;5075161;28;21126;-65
2021/06/22 00:15:30;;;;;;;6.07;3.38;;;20.50;99.90;;;;;;5076894;28;20081;-65
2021/06/22 00:17:57;;;;;;;4.80;3.17;;;20.60;99.90;;;;;;5077224;28;20062;-65
2021/06/22 00:20:25;;;;;;;9.32;3.75;;;20.50;99.90;;;;;;5076224;28;20051;-65
2021/06/22 00:22:53;;;;;;;5.70;3.83;;;20.60;99.90;;;;;;5075598;28;20579;-65
2021/06/22 00:25:23;;;;;;;7.15;4.00;;;20.60;99.90;;;;;;5078123;28;20048;-65
2021/06/22 00:27:51;;;;;;;5.55;4.00;;;20.60;99.90;;;;;;5077008;28;20051;-65
2021/06/22 00:30:19;;;;;;;8.77;4.03;;;20.70;99.90;;;;;;5079899;28;20130;-65
2021/06/22 00:32:46;;;;;;;8.32;3.70;;;20.70;99.90;;;;;;5079489;28;20495;-66
2021/06/22 00:35:14;;;;;;;8.93;4.05;;;20.70;99.90;;;;;;5076116;28;20142;-65
2021/06/22 00:37:43;;;;;;;6.38;3.88;;;20.80;99.90;;;;;;5076143;28;20117;-65
2021/06/22 00:40:11;;;;;;;9.25;4.05;;;20.80;99.90;;;;;;5075709;28;20052;-65
2021/06/22 00:42:40;;;;;;;7.65;3.78;;;20.80;99.90;;;;;;5073718;28;20524;-65
2021/06/22 00:45:08;;;;;;;6.70;3.80;;;20.80;99.90;;;;;;5078004;28;20060;-65
2021/06/22 00:47:36;;;;;;;5.63;3.60;;;20.80;99.90;;;;;;5074600;28;20753;-66
2021/06/22 00:50:04;;;;;;;5.93;4.18;;;20.90;99.90;;;;;;5078026;28;20392;-65
2021/06/22 00:52:31;;;;;;;8.23;3.88;;;20.80;99.90;;;;;;5074011;28;20044;-66
2021/06/22 00:54:59;;;;;;;9.38;4.22;;;20.80;99.90;;;;;;5076815;28;20090;-65
2021/06/22 00:57:26;;;;;;;6.80;4.05;;;20.80;99.90;;;;;;5074683;28;20084;-66
2021/06/22 00:59:54;;;;;;;6.55;3.92;;;20.80;99.90;;;;;;5077644;28;20048;-65
2021/06/22 01:02:22;;;;;;;9.40;4.90;;;20.80;99.90;;;;;;5075663;28;20048;-65
2021/06/22 01:04:49;;;;;;;7.35;4.00;;;20.80;99.90;;;;;;5075379;28;20507;-65
2021/06/22 01:07:16;;;;;;;7.47;4.25;;;20.80;99.90;;;;;;5075881;28;20070;-65
2021/06/22 01:09:43;;;;;;;9.38;4.72;;;20.80;99.90;;;;;;5074787;28;20052;-65
2021/06/22 01:12:11;;;;;;;7.60;4.78;;;20.80;99.90;;;;;;5074391;28;20093;-66
2021/06/22 01:14:42;;;;;;;8.07;5.40;;;20.70;99.90;;;;;;5080184;28;20063;-66
2021/06/22 01:17:10;;;;;;;10.30;5.82;;;20.60;99.90;;;;;;5080145;28;20112;-65
2021/06/22 01:19:38;;;;;;;7.55;5.15;;;20.70;99.90;;;;;;5078715;28;20371;-65
2021/06/22 01:22:07;;;;;;;7.88;5.03;;;20.70;99.90;;;;;;5080650;28;20056;-65
2021/06/22 01:24:34;;;;;;;9.20;4.97;;;20.60;99.90;;;;;;5078221;28;20574;-65
2021/06/22 01:27:02;;;;;;;7.90;4.63;;;20.60;99.90;;;;;;5078760;28;20462;-65
2021/06/22 01:29:29;;;;;;;9.73;4.95;;;20.70;99.90;;;;;;5080438;28;20060;-65
2021/06/22 01:31:58;;;;;;;9.57;5.07;;;20.60;99.90;;;;;;5078658;28;20060;-65
2021/06/22 01:34:26;;;;;;;7.03;4.70;;;20.50;99.90;;;;;;5073903;28;20052;-65
2021/06/22 01:36:54;;;;;;;9.02;4.90;;;20.50;99.90;;;;;;5069371;28;20052;-65
2021/06/22 01:39:22;;;;;;;12.02;5.95;;;20.50;99.90;;;;;;5065268;28;20066;-66
2021/06/22 01:41:49;;;;;;;8.18;5.35;;;20.40;99.90;;;;;;5068024;28;20416;-65
2021/06/22 01:44:16;;;;;;;6.80;5.10;;;20.40;99.90;;;;;;5065862;28;20052;-65
2021/06/22 01:46:43;;;;;;;8.77;5.90;;;20.40;99.90;;;;;;5066305;28;20090;-65
2021/06/22 01:49:10;;;;;;;10.00;6.72;;;20.40;99.90;;;;;;5065099;28;20110;-66
2021/06/22 01:51:37;;;;;;;9.35;5.60;;;20.50;99.90;;;;;;5067692;28;20131;-66
2021/06/22 01:54:05;;;;;;;11.55;5.88;;;20.50;99.90;;;;;;5069858;28;20114;-66
2021/06/22 01:56:34;;;;;;;15.30;6.57;;;20.50;99.90;;;;;;5067374;28;20263;-66
2021/06/22 01:59:02;;;;;;;10.73;5.80;;;20.40;99.90;;;;;;5064515;28;20048;-66
2021/06/22 02:01:29;;;;;;;10.15;6.20;;;20.40;99.90;;;;;;5065962;28;20084;-65
2021/06/22 02:03:56;;;;;;;8.27;6.75;;;20.40;99.90;;;;;;5069533;28;20130;-65
2021/06/22 02:06:24;;;;;;;10.40;6.78;;;20.30;99.90;;;;;;5067810;28;20063;-65
2021/06/22 02:08:51;;;;;;;11.27;7.97;;;20.20;99.90;;;;;;5065924;28;20040;-65
2021/06/22 02:11:18;;;;;;;13.63;7.90;;;20.10;99.90;;;;;;5067867;28;20058;-66
2021/06/22 02:13:48;;;;;;;11.23;6.88;;;20.20;99.90;;;;;;5065862;28;20424;-65
2021/06/22 02:16:15;;;;;;;9.18;7.15;;;20.10;99.90;;;;;;5066279;28;20407;-65
2021/06/22 02:18:42;;;;;;;11.18;7.47;;;20.10;99.90;;;;;;5064826;28;20098;-65
2021/06/22 02:21:10;;;;;;;9.23;6.95;;;20.10;99.90;;;;;;5066625;28;20044;-66
2021/06/22 02:23:37;;;;;;;11.70;8.23;;;20.00;99.90;;;;;;5067273;28;20496;-65
2021/06/22 02:26:04;;;;;;;11.88;8.02;;;20.00;99.90;;;;;;5067633;28;20048;-65
2021/06/22 02:28:31;;;;;;;13.75;7.63;;;20.00;99.90;;;;;;5066911;28;20052;-65
2021/06/22 02:31:00;;;;;;;13.27;8.40;;;19.90;99.90;;;;;;5065062;28;20703;-66
2021/06/22 02:33:28;;;;;;;11.63;7.97;;;19.80;99.90;;;;;;5067246;28;20059;-65
2021/06/22 02:35:55;;;;;;;10.98;8.13;;;19.80;99.90;;;;;;5068671;28;20078;-66
2021/06/22 02:38:22;;;;;;;13.23;8.57;;;19.80;99.90;;;;;;5067351;28;20492;-65
2021/06/22 02:40:50;;;;;;;11.23;8.10;;;19.70;99.90;;;;;;5066614;28;21409;-66
2021/06/22 02:43:17;;;;;;;11.65;7.80;;;19.70;99.90;;;;;;5068317;28;20048;-65
2021/06/22 02:45:44;;;;;;;12.27;8.18;;;19.60;99.90;;;;;;5066058;28;20052;-65
2021/06/22 02:48:14;;;;;;;10.25;8.52;;;19.60;99.90;;;;;;5064412;28;20094;-65
2021/06/22 02:50:41;;;;;;;11.50;7.65;;;19.60;99.90;;;;;;5066420;28;20040;-65
2021/06/22 02:53:09;;;;;;;9.95;7.85;;;19.50;99.90;;;;;;5065568;28;20225;-66
2021/06/22 02:55:37;;;;;;;10.20;7.95;;;19.40;99.90;;;;;;5065654;28;20079;-65
2021/06/22 02:58:04;;;;;;;12.35;7.60;;;19.40;99.90;;;;;;5067626;28;20083;-65
2021/06/22 03:00:32;;;;;;;11.25;7.95;;;19.30;99.90;;;;;;5060613;28;20079;-66
2021/06/22 03:03:00;;;;;;;13.80;7.53;;;19.20;99.90;;;;;;5065002;28;20087;-65
2021/06/22 03:05:28;;;;;;;10.05;7.70;;;19.20;99.90;;;;;;5065601;28;20060;-65
2021/06/22 03:07:55;;;;;;;12.25;8.20;;;19.10;99.90;;;;;;5063792;28;20567;-65
2021/06/22 03:10:24;;;;;;;11.27;7.55;;;19.10;99.90;;;;;;5064730;28;20538;-65
2021/06/22 03:12:51;;;;;;;14.77;7.88;;;19.00;99.90;;;;;;5061766;28;20131;-65
2021/06/22 03:15:19;;;;;;;13.25;8.57;;;19.10;99.90;;;;;;5065353;28;20048;-65
2021/06/22 03:17:47;;;;;;;10.57;8.40;;;19.00;99.90;;;;;;5065218;28;20122;-65
2021/06/22 03:20:15;;;;;;;10.90;8.27;;;19.00;99.90;;;;;;5063484;28;20052;-65
2021/06/22 03:22:43;;;;;;;13.07;8.88;;;19.00;99.90;;;;;;5062166;28;20039;-66
2021/06/22 03:25:11;;;;;;;10.32;8.23;;;18.80;99.90;;;;;;5062684;28;20058;-65
2021/06/22 03:27:39;;;;;;;10.65;8.57;;;18.60;99.90;;;;;;5063645;28;20051;-65
2021/06/22 03:30:08;;;;;;;10.63;7.88;;;18.70;99.90;;;;;;5068309;28;20044;-65
2021/06/22 03:32:36;;;;;;;10.85;7.80;;;18.60;99.90;;;;;;5065667;28;20057;-65
2021/06/22 03:35:05;;;;;;;10.27;7.05;;;18.70;99.90;;;;;;5065897;28;20630;-66
2021/06/22 03:37:32;;;;;;;10.98;7.10;;;18.70;99.90;;;;;;5063606;28;21320;-66
2021/06/22 03:40:05;;;;;;;10.82;7.60;;;18.50;99.90;;;;;;5065904;28;20056;-65
2021/06/22 03:42:32;;;;;;;10.98;7.50;;;18.60;99.90;;;;;;5055499;28;20155;-65
2021/06/22 03:44:59;;;;;;;14.80;8.48;;;18.50;99.90;;;;;;5059493;28;20099;-65
2021/06/22 03:47:26;;;;;;;10.48;7.57;;;18.50;99.90;;;;;;5061990;28;20134;-66
2021/06/22 03:49:53;;;;;;;12.43;7.57;;;18.60;99.90;;;;;;5065410;28;20128;-65
2021/06/22 03:52:20;;;;;;;12.75;7.88;;;18.60;99.90;;;;;;5064325;28;20516;-65
2021/06/22 03:54:47;;;;;;;13.48;7.53;;;18.60;99.90;;;;;;5064452;28;20059;-65
2021/06/22 03:57:15;;;;;;;10.32;7.18;;;18.60;99.90;;;;;;5064675;28;20405;-65
2021/06/22 03:59:42;;;;;;;9.85;6.25;;;18.60;99.90;;;;;;5060979;28;20415;-65
2021/06/22 04:02:09;;;;;;;14.77;7.55;;;18.60;99.90;;;;;;5060535;28;20442;-65
2021/06/22 04:04:36;;;;;;;9.82;6.88;;;18.40;99.90;;;;;;5062859;28;20135;-65
2021/06/22 04:07:04;;;;;;;12.10;7.22;;;18.30;99.90;;;;;;5064794;28;20048;-65
2021/06/22 04:09:31;;;;;;;10.90;7.20;;;18.50;99.90;;;;;;5064198;28;20093;-65
2021/06/22 04:11:58;;;;;;;10.07;7.20;;;18.40;99.90;;;;;;5064306;28;20110;-65
2021/06/22 04:14:26;;;;;;;10.07;7.00;;;18.40;99.90;;;;;;5063792;28;20454;-65
2021/06/22 04:16:53;;;;;;;10.48;6.93;;;18.50;99.90;;;;;;5064018;28;20102;-65
2021/06/22 04:19:20;;;;;;;9.63;6.35;;;18.50;99.90;;;;;;5064720;28;20056;-65
2021/06/22 04:21:47;;;;;;;10.95;6.93;;;18.50;99.90;;;;;;5064241;28;20048;-65
2021/06/22 04:24:14;;;;;;;8.43;6.10;;;18.50;99.90;;;;;;5063354;28;21155;-66
2021/06/22 04:26:41;;;;;;;10.13;7.07;;;18.50;99.90;;;;;;5063356;28;20093;-65
2021/06/22 04:29:08;;;;;;;11.35;7.32;;;18.50;99.90;;;;;;5063713;28;20408;-65
2021/06/22 04:31:36;;;;;;;10.32;6.22;;;18.50;99.90;;;;;;5063019;28;20145;-65
2021/06/22 04:34:03;;;;;;;10.68;6.38;;;18.50;99.90;;;;;;5063298;28;21223;-65
2021/06/22 04:36:30;;;;;;;11.32;6.57;;;18.70;99.90;;;;;;5063901;28;20045;-65
2021/06/22 04:38:57;;;;;;;11.18;6.10;;;18.60;99.90;;;;;;5059837;28;20443;-65
2021/06/22 04:41:24;;;;;;;11.85;7.30;;;18.60;99.90;;;;;;5065022;28;20446;-65
2021/06/22 04:43:51;;;;;;;15.70;6.60;;;18.60;99.90;;;;;;5065448;28;20098;-65
2021/06/22 04:46:18;;;;;;;9.25;6.45;;;18.60;99.90;;;;;;5063218;28;20521;-65
2021/06/22 04:48:47;;;;;;;11.02;6.43;;;18.70;99.90;;;;;;5063767;28;20048;-65
2021/06/22 04:51:14;;;;;;;11.80;6.63;;;18.90;99.90;;;;;;5055179;28;20087;-66
2021/06/22 04:53:41;;;;;;;9.45;6.40;;;18.90;99.90;;;;;;5064723;28;20170;-65
2021/06/22 04:56:08;;;;;;;9.93;6.25;;;18.90;99.90;;;;;;5064647;28;20084;-65
2021/06/22 04:58:36;;;;;;;10.82;6.25;;;19.00;99.90;;;;;;5063059;28;20047;-65
2021/06/22 05:01:05;;;;;;;13.15;6.53;;;19.00;99.90;;;;;;5063987;28;20060;-65
2021/06/22 05:03:33;;;;;;;11.02;6.25;;;19.00;99.90;;;;;;5060906;28;20076;-65
2021/06/22 05:06:01;;;;;;;12.75;6.00;;;19.00;99.90;;;;;;5060001;28;20566;-65
2021/06/22 05:08:28;;;;;;;10.02;6.38;;;19.10;99.90;;;;;;5062465;28;20098;-65
2021/06/22 05:10:55;;;;;;;10.20;6.03;;;19.10;99.90;;;;;;5062647;28;20099;-65
2021/06/22 05:13:23;;;;;;;10.18;6.00;;;19.20;99.90;;;;;;5064730;28;20052;-65
2021/06/22 05:15:50;;;;;;;11.95;6.10;;;19.30;99.90;;;;;;5064631;28;20219;-65
2021/06/22 05:18:17;;;;;;;8.48;5.82;;;19.40;99.90;;;;;;5058540;28;20061;-65
2021/06/22 05:20:44;;;;;;;8.13;5.30;;;19.50;99.90;;;;;;5055362;28;20048;-65
2021/06/22 05:23:12;;;;;;;10.50;5.78;;;19.70;99.90;;;;;;5057537;28;20495;-65
2021/06/22 05:25:39;;;;;;;10.68;5.65;;;19.70;99.90;;;;;;5060471;28;20080;-65
2021/06/22 05:28:06;;;;;;;8.95;5.45;;;19.80;99.90;;;;;;5059706;28;20059;-66
2021/06/22 05:30:34;;;;;;;9.07;5.40;;;19.90;99.90;;;;;;5062365;28;20086;-66
2021/06/22 05:33:01;;;;;;;12.07;5.40;;;19.90;99.90;;;;;;5064277;28;20052;-65
2021/06/22 05:35:28;;;;;;;7.90;4.90;;;20.00;99.90;;;;;;5063614;28;20136;-65
2021/06/22 05:37:55;;;;;;;11.95;6.00;;;19.90;99.90;;;;;;5064160;28;20060;-65
2021/06/22 05:40:25;;;;;;;8.52;5.50;;;20.00;99.90;;;;;;5060252;28;20132;-65
2021/06/22 05:42:53;;;;;;;7.93;5.03;;;20.00;99.90;;;;;;5061491;28;20438;-65
2021/06/22 05:45:20;;;;;;;7.78;5.30;;;20.00;99.90;;;;;;5061464;28;20481;-66
2021/06/22 05:47:48;;;;;;;8.38;5.85;;;19.90;99.90;;;;;;5061277;28;20051;-65
2021/06/22 05:50:15;;;;;;;9.15;4.80;;;20.10;99.90;;;;;;5062422;28;20059;-65
2021/06/22 05:52:44;;;;;;;10.07;5.68;;;20.10;99.90;;;;;;5067116;28;20412;-66
2021/06/22 05:55:17;;;;;;;10.50;5.53;;;20.30;99.90;;;;;;5068030;28;20083;-65
2021/06/22 05:57:48;;;;;;;9.45;5.68;;;20.40;99.90;;;;;;5068767;28;20055;-65
2021/06/22 06:00:17;;;;;;;8.90;5.30;;;20.50;99.90;;;;;;5073278;28;20097;-65
2021/06/22 06:02:44;;;;;;;9.85;5.85;;;20.60;99.90;;;;;;5075153;28;20452;-66
2021/06/22 06:05:13;;;;;;;9.95;5.20;;;20.60;99.90;;;;;;5076483;28;20084;-65
2021/06/22 06:07:40;;;;;;;6.95;4.43;;;20.70;99.90;;;;;;5079584;28;20063;-65
2021/06/22 06:10:08;;;;;;;9.40;4.97;;;20.90;99.90;;;;;;5075517;28;20500;-65
2021/06/22 06:12:35;;;;;;;11.13;5.30;;;21.00;99.90;;;;;;5079660;28;20113;-65
2021/06/22 06:15:05;;;;;;;7.15;4.93;;;21.00;99.90;;;;;;5077822;28;20397;-65
2021/06/22 06:17:32;;;;;;;8.57;4.40;;;21.10;99.90;;;;;;5076407;28;20199;-65
2021/06/22 06:19:59;;;;;;;9.38;4.78;;;21.20;99.90;;;;;;5078762;28;20052;-65
2021/06/22 06:22:27;;;;;;;8.27;4.40;;;21.20;99.90;;;;;;5077721;28;20160;-65
2021/06/22 06:24:56;;;;;;;9.30;4.45;;;21.00;99.90;;;;;;5080248;28;20055;-65
2021/06/22 06:27:25;;;;;;;7.35;3.70;;;21.10;99.90;;;;;;5077626;28;20089;-65
2021/06/22 06:29:56;;;;;;;8.18;3.80;;;21.10;99.90;;;;;;5077899;28;20582;-65
2021/06/22 06:32:24;;;;;;;6.10;3.20;;;21.20;99.90;;;;;;5079852;28;20086;-65
2021/06/22 06:34:51;;;;;;;14.05;4.03;;;21.20;99.90;;;;;;5080583;28;20113;-65
2021/06/22 06:37:18;;;;;;;7.97;3.47;;;21.40;99.90;;;;;;5078604;28;20056;-65
2021/06/22 06:39:46;;;;;;;10.85;3.22;;;21.20;99.90;;;;;;5078306;28;20055;-65
2021/06/22 06:42:13;;;;;;;7.03;3.60;;;21.00;99.90;;;;;;5076185;28;20131;-65
2021/06/22 06:44:40;;;;;;;5.45;3.30;;;21.20;99.90;;;;;;5080753;28;20052;-66
2021/06/22 06:47:07;;;;;;;6.55;3.35;;;21.20;99.90;;;;;;5078056;28;20053;-65
2021/06/22 06:49:36;;;;;;;6.40;3.33;;;21.20;99.90;;;;;;5077787;28;20519;-66
2021/06/22 06:52:03;;;;;;;8.52;3.70;;;21.20;99.90;;;;;;5079102;28;20048;-65
2021/06/22 06:54:30;;;;;;;9.13;3.80;;;21.30;99.90;;;;;;5080413;28;20048;-65
2021/06/22 06:56:58;;;;;;;7.95;3.65;;;21.30;99.90;;;;;;5078732;28;20056;-65
2021/06/22 06:59:25;;;;;;;8.35;3.97;;;21.50;99.90;;;;;;5079185;28;20063;-65
2021/06/22 07:01:52;;;;;;;6.63;3.88;;;21.60;99.90;;;;;;5077956;28;20060;-65
2021/06/22 07:04:20;;;;;;;9.18;4.45;;;21.80;99.90;;;;;;5080152;28;20496;-66
2021/06/22 07:06:48;;;;;;;6.20;3.95;;;21.90;99.90;;;;;;5079228;28;20048;-65
2021/06/22 07:09:16;;;;;;;7.75;3.60;;;21.80;99.90;;;;;;5077605;28;20059;-66
2021/06/22 07:11:43;;;;;;;7.60;4.00;;;22.10;99.90;;;;;;5082151;28;20039;-65
2021/06/22 07:14:14;;;;;;;6.65;3.55;;;22.20;99.90;;;;;;5078818;28;20515;-66
2021/06/22 07:16:41;;;;;;;7.57;4.07;;;22.40;99.90;;;;;;5079223;28;20405;-66
2021/06/22 07:19:08;;;;;;;6.03;3.38;;;22.50;99.90;;;;;;5078201;28;20047;-66
2021/06/22 07:21:36;;;;;;;6.90;4.00;;;22.60;99.90;;;;;;5081316;28;20052;-66
2021/06/22 07:24:06;;;;;;;5.90;3.50;;;22.50;99.90;;;;;;5079299;28;20060;-66
2021/06/22 07:26:33;;;;;;;8.18;3.30;;;22.40;99.90;;;;;;5078076;28;20048;-66
2021/06/22 07:29:01;;;;;;;6.47;3.17;;;22.40;99.90;;;;;;5076364;28;20056;-66
2021/06/22 07:31:28;;;;;;;7.85;3.47;;;22.30;99.90;;;;;;5077628;28;20115;-67
2021/06/22 07:33:55;;;;;;;8.32;3.40;;;22.70;99.90;;;;;;5078688;28;20059;-67
2021/06/22 07:36:22;;;;;;;7.80;4.03;;;22.80;99.90;;;;;;5076761;28;20056;-66
2021/06/22 07:38:50;;;;;;;7.95;4.05;;;22.90;99.90;;;;;;5077926;28;20131;-67
2021/06/22 07:41:18;;;;;;;14.90;3.60;;;23.00;99.90;;;;;;5076791;28;20044;-67
2021/06/22 07:43:46;;;;;;;10.45;5.25;;;23.10;99.90;;;;;;5081063;28;20059;-67
2021/06/22 07:46:13;;;;;;;20.60;6.15;;;23.00;99.90;;;;;;5076604;28;20048;-66
2021/06/22 07:48:40;;;;;;;10.48;4.40;;;23.10;99.90;;;;;;5072917;28;20044;-66
2021/06/22 07:51:07;;;;;;;7.80;4.20;;;23.00;99.90;;;;;;5073200;28;20052;-67
2021/06/22 07:53:34;;;;;;;8.38;4.10;;;23.10;99.90;;;;;;5074531;28;20044;-64
2021/06/22 07:56:02;;;;;;;10.38;4.57;;;23.10;99.90;;;;;;5071381;28;20052;-65
2021/06/22 07:58:30;;;;;;;9.73;4.55;;;23.10;99.90;;;;;;5069924;28;20058;-66
2021/06/22 08:00:57;;;;;;;12.98;4.75;;;22.80;99.90;;;;;;5069647;28;20052;-65
2021/06/22 08:03:27;;;;;;;8.85;4.70;;;23.10;99.90;;;;;;5065444;28;20045;-65
2021/06/22 08:05:54;;;;;;;6.65;4.40;;;23.10;99.90;;;;;;5072983;28;20399;-68
2021/06/22 08:08:22;;;;;;;10.90;4.72;;;23.00;99.90;;;;;;5072264;28;20541;-65
2021/06/22 08:10:52;;;;;;;9.52;4.85;;;23.10;99.90;;;;;;5069048;28;20166;-67
2021/06/22 08:13:20;;;;;;;11.20;4.55;;;22.80;99.90;;;;;;5072037;28;20138;-66
2021/06/22 08:15:49;;;;;;;9.15;3.95;;;23.10;99.90;;;;;;5072127;28;20044;-66
2021/06/22 08:18:16;;;;;;;7.45;4.43;;;23.10;99.90;;;;;;5077585;28;20049;-66
2021/06/22 08:20:44;;;;;;;9.40;4.00;;;23.20;99.90;;;;;;5072091;28;20062;-66
2021/06/22 08:23:11;;;;;;;12.40;3.75;;;22.70;99.90;;;;;;5077004;28;20102;-66
2021/06/22 08:25:39;;;;;;;6.18;3.90;;;22.80;99.90;;;;;;5075955;28;20107;-66
2021/06/22 08:28:06;;;;;;;8.05;3.80;;;22.80;99.90;;;;;;5075679;28;20045;-66
2021/06/22 08:30:34;;;;;;;8.52;3.78;;;23.00;99.90;;;;;;5078101;28;20079;-66
2021/06/22 08:33:04;;;;;;;5.32;3.50;;;22.90;99.90;;;;;;5072862;28;20439;-66
2021/06/22 08:35:32;;;;;;;7.75;3.45;;;23.00;99.90;;;;;;5090670;28;20051;-66
2021/06/22 08:38:00;;;;;;;5.60;3.30;;;23.10;99.90;;;;;;5091086;28;20110;-66
2021/06/22 08:40:29;;;;;;;10.45;3.78;;;22.90;99.90;;;;;;5093232;28;20507;-66
2021/06/22 08:42:56;;;;;;;8.32;3.75;;;22.80;99.90;;;;;;5087770;28;20047;-66
2021/06/22 08:45:23;;;;;;;11.15;4.00;;;23.00;99.90;;;;;;5089087;28;20066;-66
2021/06/22 08:47:51;;;;;;;5.60;3.15;;;23.00;99.90;;;;;;5089333;28;20515;-66
2021/06/22 08:50:20;;;;;;;6.05;3.80;;;22.90;99.90;;;;;;5087471;28;20046;-67
2021/06/22 08:52:47;;;;;;;7.93;3.30;;;22.90;99.90;;;;;;5089186;28;20054;-66
2021/06/22 08:55:26;;;;;;;6.03;3.33;;;23.10;99.90;;;;;;5088483;28;20079;-66
2021/06/22 08:57:55;;;;;;;6.60;3.17;;;23.30;99.90;;;;;;5088374;28;20549;-66
2021/06/22 09:00:22;;;;;;;12.55;3.28;;;23.20;99.90;;;;;;5087659;28;20060;-66
2021/06/22 09:03:08;;;;;;;7.47;3.30;;;23.40;99.90;;;;;;5087458;28;20056;-66
2021/06/22 09:05:37;;;;;;;9.70;3.45;;;23.80;99.90;;;;;;5088208;28;20051;-66
2021/06/22 09:08:05;;;;;;;6.40;3.40;;;23.70;99.90;;;;;;5086977;28;20507;-66
2021/06/22 09:10:34;;;;;;;6.75;3.33;;;23.60;99.90;;;;;;5089082;28;20054;-66
2021/06/22 09:13:12;;;;;;;9.35;3.83;;;23.60;99.90;;;;;;5092789;28;20091;-66
2021/06/22 09:15:40;;;;;;;5.60;3.10;;;23.80;99.90;;;;;;5089313;28;20487;-66
2021/06/22 09:18:27;;;;;;;8.30;3.92;;;24.10;99.90;;;;;;5091120;28;20135;-66
2021/06/22 09:20:56;;;;;;;5.10;2.83;;;24.10;99.90;;;;;;5090800;28;20149;-66
2021/06/22 09:23:25;;;;;;;5.60;2.90;;;24.10;99.90;;;;;;5088123;28;20367;-66
2021/06/22 09:25:55;;;;;;;6.93;3.17;;;24.50;99.90;;;;;;5090852;28;20504;-66
2021/06/22 09:28:25;;;;;;;11.05;3.65;;;24.90;99.90;;;;;;5087885;28;20083;-66
2021/06/22 09:30:55;;;;;;;4.88;2.80;;;25.20;99.90;;;;;;5087043;28;20743;-66
2021/06/22 09:33:34;;;;;;;9.02;4.13;;;25.50;99.90;;;;;;5091225;28;20040;-66
2021/06/22 09:36:13;;;;;;;8.25;3.75;;;25.70;99.90;;;;;;5073072;28;20079;-67
2021/06/22 09:38:42;;;;;;;5.68;2.78;;;26.00;99.90;;;;;;5082336;28;20048;-66
2021/06/22 09:41:25;;;;;;;4.90;2.60;;;25.50;99.90;;;;;;5082804;28;20051;-66
2021/06/22 09:43:59;;;;;;;8.23;3.78;;;25.70;99.90;;;;;;5083835;28;20139;-66
2021/06/22 09:46:35;;;;;;;7.55;3.40;;;25.70;99.90;;;;;;5084070;28;20052;-66
2021/06/22 09:49:04;;;;;;;8.95;2.95;;;26.00;99.90;;;;;;5084553;28;20048;-66
2021/06/22 09:51:36;;;;;;;6.60;2.92;;;26.20;99.90;;;;;;5082844;28;20452;-66
2021/06/22 09:54:17;;;;;;;5.55;2.55;;;26.10;99.90;;;;;;5084036;28;20044;-66
2021/06/22 09:56:56;;;;;;;4.70;2.78;;;25.80;99.90;;;;;;5081410;28;20048;-67
2021/06/22 09:59:24;;;;;;;6.45;3.05;;;25.90;99.90;;;;;;5082601;28;20058;-66
2021/06/22 10:01:53;;;;;;;6.57;3.10;;;26.30;99.90;;;;;;5081806;28;20127;-67
2021/06/22 10:04:22;;;;;;;7.75;3.50;;;25.70;99.90;;;;;;5080482;28;20106;-66
2021/06/22 10:06:54;;;;;;;11.43;5.35;;;25.40;99.90;;;;;;5083795;28;20408;-67
2021/06/22 10:09:29;;;;;;;5.18;3.10;;;25.60;99.90;;;;;;5081170;28;20064;-66
2021/06/22 10:11:58;;;;;;;6.60;3.72;;;25.70;99.90;;;;;;5080585;28;20504;-67
2021/06/22 10:14:27;;;;;;;6.25;3.05;;;25.90;99.90;;;;;;5080666;28;20152;-66
2021/06/22 10:16:56;;;;;;;5.07;2.97;;;25.50;99.90;;;;;;5081788;28;20066;-66
2021/06/22 10:19:24;;;;;;;6.07;2.70;;;25.60;99.90;;;;;;5081605;28;20044;-67
2021/06/22 10:21:54;;;;;;;8.82;3.13;;;25.80;99.90;;;;;;5078788;28;20044;-66
2021/06/22 10:24:23;;;;;;;9.00;3.20;;;26.50;99.90;;;;;;5068306;28;20109;-66
2021/06/22 10:26:50;;;;;;;9.55;2.92;;;26.90;99.90;;;;;;5072425;28;20075;-66
2021/06/22 10:29:19;;;;;;;9.70;3.03;;;27.40;99.90;;;;;;5070264;28;20139;-66
2021/06/22 10:31:48;;;;;;;6.43;2.72;;;28.00;99.90;;;;;;5067349;28;20415;-66
2021/06/22 10:34:16;;;;;;;9.27;2.97;;;28.70;99.90;;;;;;5068519;28;20044;-66
2021/06/22 10:36:55;;;;;;;8.55;3.47;;;28.50;99.90;;;;;;5067799;28;20135;-66
2021/06/22 10:39:27;;;;;;;8.75;3.90;;;28.00;99.90;;;;;;5067592;28;20075;-66
2021/06/22 10:41:56;;;;;;;6.15;3.38;;;28.30;99.90;;;;;;5066850;28;20045;-66
2021/06/22 10:44:44;;;;;;;6.20;3.17;;;28.50;99.90;;;;;;5067188;28;20088;-67
2021/06/22 10:47:36;;;;;;;6.72;2.80;;;29.50;99.90;;;;;;5067921;28;20040;-66
2021/06/22 10:50:29;;;;;;;5.22;2.63;;;30.60;99.90;;;;;;5050846;28;20055;-66
2021/06/22 10:53:15;;;;;;;5.20;2.85;;;31.10;99.90;;;;;;5074367;28;20083;-66
2021/06/22 10:55:57;;;;;;;9.52;3.30;;;30.80;99.90;;;;;;5075637;28;20529;-66
2021/06/22 10:58:25;;;;;;;7.13;2.80;;;31.20;99.90;;;;;;5073285;28;20047;-66
2021/06/22 11:01:14;;;;;;;5.07;2.70;;;31.30;99.90;;;;;;5074696;28;20064;-67
2021/06/22 11:03:42;;;;;;;4.82;2.90;;;31.70;99.90;;;;;;5067436;28;20082;-66
2021/06/22 11:06:23;;;;;;;8.80;2.78;;;32.60;99.90;;;;;;5074848;28;20062;-67
2021/06/22 11:08:52;;;;;;;3.80;2.40;;;31.60;99.90;;;;;;5073754;28;20060;-67
2021/06/22 11:11:24;;;;;;;4.85;2.72;;;31.80;99.90;;;;;;5074701;28;20364;-66
2021/06/22 11:13:55;;;;;;;5.60;2.95;;;30.80;99.90;;;;;;5073525;28;20131;-67
2021/06/22 11:16:40;;;;;;;8.32;2.72;;;30.80;99.90;;;;;;5073386;28;20484;-66
2021/06/22 11:19:10;;;;;;;8.57;3.60;;;32.20;99.90;;;;;;5073762;28;20064;-67
2021/06/22 11:21:48;;;;;;;4.43;3.00;;;32.60;99.90;;;;;;5072664;28;20049;-67
2021/06/22 11:24:18;;;;;;;12.48;4.60;;;32.30;99.90;;;;;;5072770;28;20048;-66
2021/06/22 11:27:05;;;;;;;3.95;2.40;;;32.00;99.90;;;;;;5072389;28;20497;-67
2021/06/22 11:29:53;;;;;;;5.55;2.88;;;31.60;99.90;;;;;;5072334;28;20056;-67
2021/06/22 11:32:44;;;;;;;4.82;2.53;;;31.00;99.90;;;;;;5071530;28;20084;-66
2021/06/22 11:35:13;;;;;;;7.45;2.72;;;31.90;99.90;;;;;;5073821;28;20064;-66
2021/06/22 11:37:41;;;;;;;4.88;2.90;;;31.80;99.90;;;;;;5073861;28;20051;-67
2021/06/22 11:40:21;;;;;;;6.15;2.78;;;31.40;99.90;;;;;;5072592;28;20547;-66
2021/06/22 11:43:09;;;;;;;6.30;2.90;;;32.60;99.90;;;;;;5072737;28;20056;-66
2021/06/22 11:45:39;;;;;;;7.07;2.80;;;32.50;99.90;;;;;;5074703;28;20118;-66
2021/06/22 11:48:07;;;;;;;6.03;2.33;;;32.60;99.90;;;;;;5073546;28;20394;-66
2021/06/22 11:50:48;;;;;;;6.03;2.67;;;32.50;99.90;;;;;;5074681;28;20405;-67
2021/06/22 11:53:16;;;;;;;9.65;2.63;;;32.70;99.90;;;;;;5072295;28;20067;-67
2021/06/22 11:55:55;;;;;;;4.43;2.67;;;33.40;99.90;;;;;;5073931;28;20052;-67
2021/06/22 11:58:28;;;;;;;5.78;2.40;;;33.90;99.90;;;;;;5072029;28;20078;-67
2021/06/22 12:00:57;;;;;;;8.65;3.88;;;33.90;99.90;;;;;;5075737;28;20044;-67
2021/06/22 12:03:28;;;;;;;6.35;2.85;;;33.60;99.90;;;;;;5076331;28;20048;-66
2021/06/22 12:06:04;;;;;;;3.95;2.90;;;31.80;99.90;;;;;;5074859;28;20048;-67
2021/06/22 12:08:34;;;;;;;7.63;3.00;;;31.90;99.90;;;;;;5072902;28;20082;-67
2021/06/22 12:11:03;;;;;;;6.68;3.22;;;32.40;99.90;;;;;;5073585;28;20071;-67
2021/06/22 12:13:32;;;;;;;5.10;2.90;;;32.30;99.90;;;;;;5073405;28;20048;-67
2021/06/22 12:16:12;;;;;;;6.93;2.90;;;31.00;99.90;;;;;;5073043;28;20045;-67
2021/06/22 12:18:39;;;;;;;5.43;2.80;;;31.70;99.90;;;;;;5072266;28;20044;-67
2021/06/22 12:21:06;;;;;;;5.32;2.42;;;33.00;99.90;;;;;;5074246;28;20070;-67
2021/06/22 12:23:33;;;;;;;5.97;3.25;;;33.30;99.90;;;;;;5074998;28;20063;-67
2021/06/22 12:26:03;;;;;;;6.90;3.00;;;32.80;99.90;;;;;;5070997;28;20055;-67
2021/06/22 12:28:33;;;;;;;6.43;2.95;;;33.60;99.90;;;;;;5071444;28;20510;-67
2021/06/22 12:31:01;;;;;;;7.22;3.33;;;34.00;99.90;;;;;;5073981;28;20048;-67
2021/06/22 12:33:31;;;;;;;3.83;2.50;;;33.30;99.90;;;;;;5071894;28;20055;-67
2021/06/22 12:36:02;;;;;;;8.00;3.05;;;33.80;99.90;;;;;;5065097;28;20051;-67
2021/06/22 12:38:30;;;;;;;4.75;2.80;;;34.20;99.90;;;;;;5070946;28;20078;-67
2021/06/22 12:40:59;;;;;;;4.50;2.60;;;33.50;99.90;;;;;;5068179;28;20053;-67
2021/06/22 12:43:47;;;;;;;9.32;3.40;;;33.50;99.90;;;;;;5066332;28;20393;-67
2021/06/22 12:46:17;;;;;;;6.93;2.78;;;33.60;99.90;;;;;;5065156;28;20056;-67
2021/06/22 12:48:45;;;;;;;4.32;2.20;;;34.00;99.90;;;;;;5064744;28;20052;-67
2021/06/22 12:51:15;;;;;;;8.45;2.75;;;33.90;99.40;;;;;;5063751;28;20483;-67
2021/06/22 12:53:45;;;;;;;9.95;2.75;;;33.30;99.90;;;;;;5065153;28;20595;-67